createdAt,value
2017-12-20T00:02:15.634Z,15.38
2017-12-20T00:04:43.627Z,16.23
2017-12-20T00:07:11.534Z,13.32
2017-12-20T00:09:39.537Z,15.65
2017-12-20T00:12:07.441Z,16.00
2017-12-20T00:14:35.417Z,17.17
2017-12-20T00:17:03.338Z,14.02
2017-12-20T00:19:31.299Z,14.63
2017-12-20T00:21:59.292Z,21.45
2017-12-20T00:24:28.036Z,17.20
2017-12-20T00:26:55.954Z,18.30
2017-12-20T00:29:24.708Z,18.25
2017-12-20T00:31:52.638Z,19.42
2017-12-20T00:34:20.609Z,14.30
2017-12-20T00:36:48.548Z,16.30
2017-12-20T00:39:17.264Z,17.15
2017-12-20T00:41:45.173Z,14.87
2017-12-20T00:44:13.135Z,14.82
2017-12-20T00:46:41.049Z,19.15
2017-12-20T00:49:09.773Z,20.60
2017-12-20T00:51:37.677Z,15.35
2017-12-20T00:54:05.605Z,16.65
2017-12-20T00:56:37.191Z,15.60
2017-12-20T00:59:05.101Z,13.35
2017-12-20T01:01:33.064Z,16.73
2017-12-20T01:04:00.991Z,15.60
2017-12-20T01:06:29.008Z,16.60
2017-12-20T01:08:56.973Z,14.05
2017-12-20T01:11:24.939Z,15.73
2017-12-20T01:13:52.832Z,14.52
2017-12-20T01:16:20.865Z,17.37
2017-12-20T01:18:48.797Z,20.67
2017-12-20T01:21:16.759Z,20.77
2017-12-20T01:23:44.685Z,16.90
2017-12-20T01:26:17.445Z,16.45
2017-12-20T01:28:45.365Z,15.60
2017-12-20T01:31:13.332Z,12.00
2017-12-20T01:33:42.000Z,14.87
2017-12-20T01:36:09.975Z,15.38
2017-12-20T01:38:38.664Z,12.13
2017-12-20T01:41:07.465Z,16.20
2017-12-20T01:43:35.392Z,16.80
2017-12-20T01:46:03.374Z,15.00
2017-12-20T01:48:31.312Z,16.73
2017-12-20T01:50:59.286Z,12.93
2017-12-20T01:53:27.204Z,11.95
2017-12-20T01:55:56.227Z,12.40
2017-12-20T01:58:24.223Z,13.15
2017-12-20T02:00:52.307Z,14.98
2017-12-20T02:03:20.229Z,11.75
2017-12-20T02:05:48.203Z,13.60
2017-12-20T02:08:16.134Z,14.10
2017-12-20T02:10:44.104Z,11.55
2017-12-20T02:13:12.029Z,17.33
2017-12-20T02:15:39.997Z,12.43
2017-12-20T02:18:11.848Z,11.80
2017-12-20T02:20:39.886Z,12.40
2017-12-20T02:23:08.639Z,13.50
2017-12-20T02:25:36.690Z,13.68
2017-12-20T02:28:04.679Z,15.77
2017-12-20T02:30:32.768Z,13.50
2017-12-20T02:33:00.750Z,12.48
2017-12-20T02:35:28.744Z,9.80
2017-12-20T02:37:56.724Z,9.65
2017-12-20T02:40:24.754Z,8.35
2017-12-20T02:42:52.725Z,13.15
2017-12-20T02:45:20.732Z,10.68
2017-12-20T02:47:48.736Z,12.95
2017-12-20T02:50:16.801Z,11.50
2017-12-20T02:52:44.797Z,10.27
2017-12-20T02:55:12.818Z,9.10
2017-12-20T02:57:40.777Z,9.70
2017-12-20T03:00:08.813Z,9.25
2017-12-20T03:02:36.766Z,8.68
2017-12-20T03:05:04.787Z,8.00
2017-12-20T03:07:32.738Z,8.75
2017-12-20T03:10:00.748Z,8.25
2017-12-20T03:12:28.743Z,10.93
2017-12-20T03:14:56.768Z,8.68
2017-12-20T03:17:28.345Z,8.05
2017-12-20T03:19:56.341Z,8.73
2017-12-20T03:22:24.310Z,11.00
2017-12-20T03:24:52.297Z,9.20
2017-12-20T03:27:20.216Z,9.45
2017-12-20T03:29:48.183Z,6.80
2017-12-20T03:32:16.093Z,10.32
2017-12-20T03:34:44.022Z,8.27
2017-12-20T03:37:11.999Z,8.75
2017-12-20T03:39:39.947Z,9.55
2017-12-20T03:42:07.950Z,9.98
2017-12-20T03:44:35.864Z,11.75
2017-12-20T03:47:12.585Z,13.93
2017-12-20T03:49:40.509Z,15.18
2017-12-20T03:52:08.521Z,15.70
2017-12-20T03:54:36.519Z,10.18
2017-12-20T03:57:04.507Z,8.25
2017-12-20T03:59:32.469Z,8.25
2017-12-20T04:02:00.432Z,9.57
2017-12-20T04:04:28.350Z,7.80
2017-12-20T04:06:56.327Z,14.05
2017-12-20T04:09:25.028Z,10.35
2017-12-20T04:11:53.020Z,10.85
2017-12-20T04:14:20.940Z,9.52
2017-12-20T04:16:48.897Z,7.75
2017-12-20T04:19:16.811Z,12.32
2017-12-20T04:21:44.783Z,11.07
2017-12-20T04:24:12.742Z,10.65
2017-12-20T04:26:41.489Z,9.13
2017-12-20T04:29:09.382Z,7.90
2017-12-20T04:31:37.333Z,7.72
2017-12-20T04:34:05.233Z,6.87
2017-12-20T04:36:33.173Z,7.15
2017-12-20T04:39:01.073Z,7.55
2017-12-20T04:41:29.024Z,7.78
2017-12-20T04:43:56.926Z,8.25
2017-12-20T04:46:25.141Z,8.93
2017-12-20T04:48:53.047Z,7.35
2017-12-20T04:51:21.003Z,6.57
2017-12-20T04:53:48.909Z,7.10
2017-12-20T04:56:16.863Z,6.45
2017-12-20T04:58:44.774Z,8.57
2017-12-20T05:01:12.745Z,8.40
2017-12-20T05:03:40.655Z,6.37
2017-12-20T05:06:09.423Z,4.95
2017-12-20T05:08:37.405Z,6.22
2017-12-20T05:11:05.378Z,4.50
2017-12-20T05:13:33.349Z,5.55
2017-12-20T05:16:01.393Z,4.87
2017-12-20T05:18:29.304Z,10.52
2017-12-20T05:20:58.723Z,5.68
2017-12-20T05:23:27.408Z,5.43
2017-12-20T05:26:01.543Z,6.60
2017-12-20T05:28:34.780Z,5.82
2017-12-20T05:31:06.356Z,12.98
2017-12-20T05:33:38.164Z,5.22
2017-12-20T05:36:06.378Z,6.07
2017-12-20T05:38:34.375Z,6.50
2017-12-20T05:41:02.374Z,5.78
2017-12-20T05:43:30.310Z,5.53
2017-12-20T05:46:04.349Z,4.90
2017-12-20T05:48:32.809Z,5.00
2017-12-20T05:51:00.817Z,3.55
2017-12-20T05:53:28.746Z,3.78
2017-12-20T05:55:56.720Z,4.40
2017-12-20T05:58:26.131Z,4.57
2017-12-20T06:00:55.186Z,5.87
2017-12-20T06:03:26.558Z,5.20
2017-12-20T06:05:54.784Z,5.87
2017-12-20T06:08:22.710Z,4.65
2017-12-20T06:10:51.460Z,4.40
2017-12-20T06:13:19.376Z,4.20
2017-12-20T06:15:47.383Z,5.87
2017-12-20T06:18:15.303Z,6.15
2017-12-20T06:20:43.446Z,6.32
2017-12-20T06:23:11.382Z,5.82
2017-12-20T06:25:39.312Z,4.93
2017-12-20T06:28:07.447Z,5.93
2017-12-20T06:30:35.377Z,5.50
2017-12-20T06:33:03.362Z,5.35
2017-12-20T06:35:31.328Z,4.22
2017-12-20T06:37:59.327Z,4.18
2017-12-20T06:40:27.273Z,6.75
2017-12-20T06:42:55.222Z,4.90
2017-12-20T06:45:23.908Z,4.40
2017-12-20T06:47:52.700Z,4.95
2017-12-20T06:50:20.634Z,5.45
2017-12-20T06:52:48.624Z,5.53
2017-12-20T06:55:16.538Z,5.32
2017-12-20T06:57:44.677Z,6.80
2017-12-20T07:00:12.581Z,7.05
2017-12-20T07:02:40.583Z,6.12
2017-12-20T07:05:08.515Z,7.55
2017-12-20T07:07:36.503Z,5.25
2017-12-20T07:10:04.424Z,5.07
2017-12-20T07:12:32.421Z,7.40
2017-12-20T07:15:00.334Z,5.65
2017-12-20T07:17:28.308Z,4.15
2017-12-20T07:19:56.250Z,4.35
2017-12-20T07:22:24.246Z,6.35
2017-12-20T07:24:52.162Z,7.12
2017-12-20T07:27:20.150Z,6.57
2017-12-20T07:29:48.100Z,5.75
2017-12-20T07:32:16.094Z,5.22
2017-12-20T07:34:44.025Z,5.03
2017-12-20T07:37:12.013Z,5.35
2017-12-20T07:39:39.954Z,5.07
2017-12-20T07:42:08.718Z,4.68
2017-12-20T07:44:36.664Z,4.32
2017-12-20T07:47:04.663Z,4.62
2017-12-20T07:49:32.616Z,7.07
2017-12-20T07:52:00.578Z,5.15
2017-12-20T07:54:29.367Z,4.50
2017-12-20T07:56:57.429Z,4.15
2017-12-20T07:59:25.398Z,4.72
2017-12-20T08:01:53.343Z,5.68
2017-12-20T08:04:21.379Z,4.30
2017-12-20T08:06:49.313Z,3.62
2017-12-20T08:09:17.344Z,4.12
2017-12-20T08:11:46.081Z,3.53
2017-12-20T08:14:14.090Z,3.40
2017-12-20T08:16:42.188Z,3.90
2017-12-20T08:19:10.303Z,3.97
2017-12-20T08:21:38.322Z,3.87
2017-12-20T08:24:06.362Z,3.70
2017-12-20T08:26:37.579Z,3.83
2017-12-20T08:29:05.619Z,4.37
2017-12-20T08:31:33.644Z,4.28
2017-12-20T08:34:01.638Z,4.65
2017-12-20T08:36:29.668Z,5.43
2017-12-20T08:38:57.648Z,3.33
2017-12-20T08:41:25.686Z,4.95
2017-12-20T08:43:53.654Z,5.82
2017-12-20T08:46:21.724Z,4.00
2017-12-20T08:48:49.693Z,4.40
2017-12-20T08:51:17.725Z,4.37
2017-12-20T08:53:45.678Z,4.87
2017-12-20T08:56:17.372Z,7.80
2017-12-20T08:58:45.362Z,6.95
2017-12-20T09:01:13.385Z,8.52
2017-12-20T09:03:42.140Z,7.65
2017-12-20T09:06:10.138Z,9.38
2017-12-20T09:08:38.076Z,10.95
2017-12-20T09:11:06.102Z,8.05
2017-12-20T09:13:34.044Z,6.28
2017-12-20T09:16:02.006Z,8.98
2017-12-20T09:18:30.027Z,3.90
2017-12-20T09:20:58.006Z,3.15
2017-12-20T09:23:26.773Z,5.15
2017-12-20T09:25:54.730Z,3.65
2017-12-20T09:28:22.749Z,7.57
2017-12-20T09:30:50.730Z,5.28
2017-12-20T09:33:18.788Z,4.25
2017-12-20T09:35:46.748Z,4.12
2017-12-20T09:38:15.537Z,4.15
2017-12-20T09:40:43.483Z,4.72
2017-12-20T09:43:11.496Z,4.03
2017-12-20T09:45:39.484Z,4.32
2017-12-20T09:48:08.736Z,7.22
2017-12-20T09:50:36.739Z,5.28
2017-12-20T09:53:04.814Z,4.57
2017-12-20T09:55:32.804Z,2.90
2017-12-20T09:58:02.656Z,3.55
2017-12-20T10:00:30.743Z,4.70
2017-12-20T10:02:58.807Z,5.15
2017-12-20T10:05:26.800Z,5.37
2017-12-20T10:07:54.788Z,4.72
2017-12-20T10:10:25.799Z,3.90
2017-12-20T10:12:57.649Z,3.85
2017-12-20T10:15:26.501Z,5.25
2017-12-20T10:17:58.445Z,5.95
2017-12-20T10:20:26.500Z,8.75
2017-12-20T10:22:54.535Z,4.60
2017-12-20T10:25:22.575Z,4.93
2017-12-20T10:27:50.751Z,5.62
2017-12-20T10:30:18.742Z,5.07
2017-12-20T10:32:46.826Z,4.55
2017-12-20T10:35:14.889Z,4.53
2017-12-20T10:37:42.956Z,5.50
2017-12-20T10:40:10.915Z,5.35
2017-12-20T10:42:38.905Z,6.07
2017-12-20T10:45:06.906Z,6.68
2017-12-20T10:47:39.089Z,4.85
2017-12-20T10:50:07.137Z,5.10
2017-12-20T10:52:35.133Z,6.20
2017-12-20T10:55:03.213Z,6.40
2017-12-20T10:57:31.213Z,7.68
2017-12-20T10:59:59.278Z,8.05
2017-12-20T11:02:27.263Z,9.70
2017-12-20T11:04:55.304Z,10.40
2017-12-20T11:07:23.535Z,7.18
2017-12-20T11:09:51.544Z,7.25
2017-12-20T11:12:19.540Z,8.45
2017-12-20T11:14:47.564Z,8.23
2017-12-20T11:17:15.699Z,10.80
2017-12-20T11:19:43.774Z,9.40
2017-12-20T11:22:11.776Z,9.32
2017-12-20T11:24:39.796Z,10.98
2017-12-20T11:27:07.782Z,14.23
2017-12-20T11:29:35.804Z,10.98
2017-12-20T11:32:03.825Z,13.40
2017-12-20T11:34:31.844Z,13.75
2017-12-20T11:37:00.630Z,12.45
2017-12-20T11:39:28.673Z,11.70
2017-12-20T11:41:56.654Z,14.77
2017-12-20T11:44:24.718Z,12.15
2017-12-20T11:46:53.769Z,14.02
2017-12-20T11:49:21.763Z,11.07
2017-12-20T11:51:49.811Z,13.82
2017-12-20T11:54:17.788Z,16.00
2017-12-20T11:56:46.073Z,12.82
2017-12-20T11:59:14.040Z,13.65
2017-12-20T12:01:42.173Z,13.88
2017-12-20T12:04:10.962Z,14.23
2017-12-20T12:06:39.034Z,14.95
2017-12-20T12:09:07.817Z,14.80
2017-12-20T12:11:35.870Z,13.73
2017-12-20T12:14:03.870Z,16.62
2017-12-20T12:16:33.132Z,12.80
2017-12-20T12:19:01.120Z,14.70
2017-12-20T12:21:29.208Z,13.62
2017-12-20T12:23:57.339Z,16.42
2017-12-20T12:26:25.603Z,14.77
2017-12-20T12:28:53.627Z,12.85
2017-12-20T12:31:21.741Z,12.75
2017-12-20T12:33:50.013Z,12.75
2017-12-20T12:36:18.110Z,11.70
2017-12-20T12:38:46.135Z,12.13
2017-12-20T12:41:14.963Z,14.10
2017-12-20T12:43:43.002Z,14.95
2017-12-20T12:46:11.901Z,15.73
2017-12-20T12:48:39.926Z,13.50
2017-12-20T12:51:08.007Z,13.77
2017-12-20T12:53:36.296Z,14.55
2017-12-20T12:56:04.458Z,16.17
2017-12-20T12:58:32.422Z,12.75
2017-12-20T13:01:00.392Z,13.20
2017-12-20T13:03:28.488Z,13.65
2017-12-20T13:05:57.250Z,12.77
2017-12-20T13:08:25.302Z,14.90
2017-12-20T13:10:53.345Z,15.32
2017-12-20T13:13:21.414Z,12.30
2017-12-20T13:15:49.561Z,14.77
2017-12-20T13:18:17.593Z,14.15
2017-12-20T13:20:45.571Z,12.77
2017-12-20T13:23:13.597Z,12.43
2017-12-20T13:25:42.339Z,24.70
2017-12-20T13:28:10.362Z,15.75
2017-12-20T13:30:39.257Z,14.27
2017-12-20T13:33:07.287Z,21.30
2017-12-20T13:35:35.922Z,15.02
2017-12-20T13:38:04.099Z,19.30
2017-12-20T13:40:32.038Z,16.95
2017-12-20T13:43:00.128Z,18.83
2017-12-20T13:45:29.102Z,19.35
2017-12-20T13:47:57.581Z,19.23
2017-12-20T13:50:28.593Z,15.68
2017-12-20T13:52:56.748Z,19.08
2017-12-20T13:55:24.795Z,19.23
2017-12-20T13:57:53.615Z,17.55
2017-12-20T14:00:21.632Z,21.05
2017-12-20T14:02:49.714Z,16.67
2017-12-20T14:05:17.742Z,20.02
2017-12-20T14:07:45.754Z,21.33
2017-12-20T14:10:13.735Z,21.40
2017-12-20T14:12:41.721Z,19.25
2017-12-20T14:15:09.751Z,18.58
2017-12-20T14:17:37.837Z,19.45
2017-12-20T14:20:05.851Z,20.37
2017-12-20T14:22:33.808Z,19.10
2017-12-20T14:25:01.810Z,21.30
2017-12-20T14:27:29.766Z,20.77
2017-12-20T14:29:57.769Z,24.37
2017-12-20T14:32:25.711Z,19.40
2017-12-20T14:34:53.745Z,22.27
2017-12-20T14:37:22.472Z,22.58
2017-12-20T14:39:50.500Z,21.50
2017-12-20T14:42:19.232Z,24.40
2017-12-20T14:44:47.246Z,21.98
2017-12-20T14:47:15.267Z,35.00
2017-12-20T14:49:43.280Z,27.60
2017-12-20T14:52:11.260Z,27.37
2017-12-20T14:54:39.333Z,21.45
2017-12-20T14:57:07.361Z,19.83
2017-12-20T14:59:35.452Z,26.75
2017-12-20T15:02:03.456Z,21.30
2017-12-20T15:04:31.461Z,19.45
2017-12-20T15:06:59.412Z,24.08
2017-12-20T15:09:28.211Z,17.42
2017-12-20T15:11:56.223Z,22.35
2017-12-20T15:14:24.221Z,25.85
2017-12-20T15:16:52.220Z,20.55
2017-12-20T15:19:20.251Z,23.45
2017-12-20T15:21:48.205Z,25.83
2017-12-20T15:24:16.242Z,23.48
2017-12-20T15:26:44.232Z,30.52
2017-12-20T15:29:12.255Z,23.70
2017-12-20T15:31:40.299Z,21.02
2017-12-20T15:34:08.359Z,30.15
2017-12-20T15:36:36.286Z,21.45
2017-12-20T15:39:04.384Z,23.30
2017-12-20T15:41:32.365Z,25.20
2017-12-20T15:44:00.448Z,23.02
2017-12-20T15:46:31.780Z,22.80
2017-12-20T15:48:59.780Z,20.60
2017-12-20T15:51:27.728Z,22.02
2017-12-20T15:53:55.730Z,19.75
2017-12-20T15:56:23.654Z,23.02
2017-12-20T15:58:51.656Z,21.90
2017-12-20T16:01:19.596Z,28.62
2017-12-20T16:03:47.583Z,24.85
2017-12-20T16:06:15.503Z,27.35
2017-12-20T16:08:43.488Z,27.95
2017-12-20T16:11:12.214Z,20.33
2017-12-20T16:13:40.254Z,30.33
2017-12-20T16:16:08.350Z,24.48
2017-12-20T16:18:36.377Z,26.23
2017-12-20T16:21:05.078Z,25.27
2017-12-20T16:23:33.828Z,26.95
2017-12-20T16:26:01.805Z,26.45
2017-12-20T16:28:29.827Z,22.77
2017-12-20T16:30:57.751Z,22.60
2017-12-20T16:33:25.733Z,25.75
2017-12-20T16:35:54.486Z,27.55
2017-12-20T16:38:22.511Z,32.00
2017-12-20T16:40:51.257Z,22.00
2017-12-20T16:43:19.354Z,22.75
2017-12-20T16:45:47.429Z,26.62
2017-12-20T16:48:15.432Z,28.10
2017-12-20T16:50:43.451Z,23.00
2017-12-20T16:53:11.448Z,29.50
2017-12-20T16:55:39.443Z,23.30
2017-12-20T16:58:07.412Z,22.58
2017-12-20T17:00:35.514Z,21.58
2017-12-20T17:03:03.523Z,25.23
2017-12-20T17:05:31.527Z,35.33
2017-12-20T17:08:03.114Z,21.73
2017-12-20T17:10:31.124Z,27.05
2017-12-20T17:12:59.184Z,33.55
2017-12-20T17:15:27.210Z,42.60
2017-12-20T17:17:55.391Z,31.45
2017-12-20T17:20:23.410Z,28.05
2017-12-20T17:22:52.111Z,28.75
2017-12-20T17:25:20.131Z,21.08
2017-12-20T17:27:48.676Z,29.67
2017-12-20T17:30:16.682Z,34.55
2017-12-20T17:32:44.626Z,27.08
2017-12-20T17:35:12.607Z,26.40
2017-12-20T17:37:40.788Z,23.05
2017-12-20T17:40:12.378Z,28.75
2017-12-20T17:42:40.536Z,21.98
2017-12-20T17:45:08.539Z,19.25
2017-12-20T17:47:36.476Z,27.62
2017-12-20T17:50:04.470Z,21.60
2017-12-20T17:52:32.407Z,24.73
2017-12-20T17:55:00.415Z,27.62
2017-12-20T17:57:28.381Z,22.45
2017-12-20T17:59:56.462Z,25.62
2017-12-20T18:02:24.772Z,25.60
2017-12-20T18:04:52.883Z,24.52
2017-12-20T18:07:20.923Z,29.50
2017-12-20T18:09:48.852Z,29.40
2017-12-20T18:12:17.027Z,24.63
2017-12-20T18:14:45.809Z,31.00
2017-12-20T18:17:13.765Z,19.33
2017-12-20T18:19:41.787Z,26.30
2017-12-20T18:22:10.487Z,25.88
2017-12-20T18:24:38.483Z,26.27
2017-12-20T18:27:06.496Z,27.70
2017-12-20T18:29:35.239Z,29.48
2017-12-20T18:32:03.186Z,26.02
2017-12-20T18:34:31.231Z,28.23
2017-12-20T18:37:03.385Z,24.67
2017-12-20T18:39:31.448Z,25.27
2017-12-20T18:41:59.424Z,21.30
2017-12-20T18:44:27.992Z,27.85
2017-12-20T18:46:55.910Z,26.27
2017-12-20T18:49:23.920Z,22.13
2017-12-20T18:51:52.024Z,20.00
2017-12-20T18:54:20.516Z,26.70
2017-12-20T18:56:49.283Z,36.67
2017-12-20T18:59:17.262Z,23.23
2017-12-20T19:01:45.299Z,29.55
2017-12-20T19:04:13.283Z,22.70
2017-12-20T19:06:43.287Z,22.83
2017-12-20T19:09:11.510Z,21.40
2017-12-20T19:11:40.248Z,26.15
2017-12-20T19:14:09.022Z,25.77
2017-12-20T19:16:36.990Z,22.05
2017-12-20T19:19:05.228Z,32.72
2017-12-20T19:21:33.401Z,21.30
2017-12-20T19:24:01.621Z,42.53
2017-12-20T19:26:29.651Z,25.42
2017-12-20T19:28:58.388Z,21.62
2017-12-20T19:31:26.453Z,34.30
2017-12-20T19:33:54.422Z,29.10
2017-12-20T19:36:24.527Z,27.27
2017-12-20T19:38:52.531Z,22.73
2017-12-20T19:41:20.549Z,21.87
2017-12-20T19:43:48.472Z,23.90
2017-12-20T19:46:16.526Z,25.48
2017-12-20T19:48:44.487Z,19.70
2017-12-20T19:51:12.573Z,25.05
2017-12-20T19:53:40.555Z,25.90
2017-12-20T19:56:08.563Z,24.10
2017-12-20T19:58:37.281Z,21.55
2017-12-20T20:01:05.253Z,26.60
2017-12-20T20:03:33.308Z,28.08
2017-12-20T20:06:01.348Z,47.88
2017-12-20T20:08:29.427Z,28.83
2017-12-20T20:10:57.440Z,43.60
2017-12-20T20:13:25.486Z,22.67
2017-12-20T20:15:53.480Z,24.37
2017-12-20T20:18:21.398Z,23.80
2017-12-20T20:20:49.451Z,24.42
2017-12-20T20:23:17.375Z,21.85
2017-12-20T20:25:45.702Z,21.12
2017-12-20T20:28:13.643Z,22.20
2017-12-20T20:30:42.426Z,26.50
2017-12-20T20:33:10.405Z,18.33
2017-12-20T20:35:38.392Z,22.55
2017-12-20T20:38:06.372Z,23.42
2017-12-20T20:40:34.345Z,23.00
2017-12-20T20:43:02.303Z,28.00
2017-12-20T20:45:30.296Z,19.92
2017-12-20T20:47:58.231Z,24.95
2017-12-20T20:50:26.214Z,23.20
2017-12-20T20:52:54.156Z,44.53
2017-12-20T20:55:22.150Z,44.15
2017-12-20T20:57:50.211Z,28.25
2017-12-20T21:00:18.244Z,25.95
2017-12-20T21:02:46.182Z,39.03
2017-12-20T21:05:14.177Z,33.90
2017-12-20T21:07:42.116Z,26.62
2017-12-20T21:10:10.094Z,28.62
2017-12-20T21:12:38.048Z,26.12
2017-12-20T21:15:06.025Z,28.02
2017-12-20T21:17:34.735Z,28.98
2017-12-20T21:20:02.741Z,28.27
2017-12-20T21:22:31.461Z,27.17
2017-12-20T21:24:59.438Z,19.25
2017-12-20T21:27:27.409Z,32.83
2017-12-20T21:29:55.374Z,28.73
2017-12-20T21:32:23.315Z,38.97
2017-12-20T21:34:51.313Z,29.77
2017-12-20T21:37:19.319Z,29.70
2017-12-20T21:39:47.308Z,24.77
2017-12-20T21:42:15.244Z,31.52
2017-12-20T21:44:43.232Z,28.40
2017-12-20T21:47:11.401Z,27.62
2017-12-20T21:49:39.378Z,28.38
2017-12-20T21:52:07.432Z,21.50
2017-12-20T21:54:35.392Z,20.02
2017-12-20T21:57:03.462Z,29.00
2017-12-20T21:59:31.466Z,28.80
2017-12-20T22:01:59.495Z,27.00
2017-12-20T22:04:27.463Z,30.70
2017-12-20T22:06:55.536Z,27.90
2017-12-20T22:09:23.465Z,24.98
2017-12-20T22:11:51.462Z,23.08
2017-12-20T22:14:20.189Z,23.33
2017-12-20T22:16:48.167Z,25.67
2017-12-20T22:19:16.340Z,21.45
2017-12-20T22:21:46.594Z,21.55
2017-12-20T22:24:16.308Z,22.75
2017-12-20T22:26:47.932Z,28.20
2017-12-20T22:29:16.672Z,21.55
2017-12-20T22:31:44.813Z,17.52
2017-12-20T22:34:12.712Z,26.23
2017-12-20T22:36:41.639Z,19.27
2017-12-20T22:39:10.434Z,25.58
2017-12-20T22:41:38.433Z,23.02
2017-12-20T22:44:06.398Z,26.65
2017-12-20T22:46:34.323Z,26.90
2017-12-20T22:49:04.340Z,34.10
2017-12-20T22:51:32.294Z,26.65
2017-12-20T22:54:00.424Z,20.98
2017-12-20T22:56:28.336Z,22.35
2017-12-20T22:58:57.091Z,22.20
2017-12-20T23:01:25.068Z,20.23
2017-12-20T23:03:53.036Z,25.30
2017-12-20T23:06:21.019Z,24.52
2017-12-20T23:08:49.278Z,29.70
2017-12-20T23:11:17.243Z,22.17
2017-12-20T23:13:45.290Z,37.70
2017-12-20T23:16:13.232Z,19.20
2017-12-20T23:18:41.234Z,27.92
2017-12-20T23:21:09.179Z,27.40
2017-12-20T23:23:37.497Z,32.53
2017-12-20T23:26:05.526Z,25.45
2017-12-20T23:28:33.530Z,28.38
2017-12-20T23:31:01.513Z,22.55
2017-12-20T23:33:29.518Z,18.75
2017-12-20T23:35:58.246Z,22.80
2017-12-20T23:38:27.510Z,29.00
2017-12-20T23:40:55.582Z,20.70
2017-12-20T23:43:24.529Z,24.23
2017-12-20T23:45:52.563Z,21.10
2017-12-20T23:48:20.548Z,17.27
2017-12-20T23:50:48.533Z,22.05
2017-12-20T23:53:16.505Z,24.80
2017-12-20T23:55:44.512Z,33.35
2017-12-20T23:58:12.457Z,16.90
